CheckWX is a tool to help pilots better visualize weather data.  It is not intended as a substitute for an official pre-flight weather briefing.

02:18:26 UTC

CYXS METAR
Prince George Airport
Prince George, Canada
Current

1 hour ago

CYXS 190100Z AUTO 35003KT 320V040 9SM SCT041 BKN065 BKN078 15/08 A2994 RMK SLP155 DENSITY ALT 2800FT
Observed
Sep-19 @ 01:00 UTC
Wind
  • 350° at 3 KTS
Visibility
9 SM
Flight Rules
VFR
Cloud Levels
  • Scattered at 4,100' AGL
  • Broken at 6,500' AGL
  • Broken at 7,800' AGL
Temperature
15°C / 59°F
Dewpoint
C / 46°F
Humidity
63%
Altimeter
29.94" Hg
Pressure
1013.92 hPa
Previous

2 hours ago

CYXS 190000Z AUTO VRB02KT 9SM SCT080 17/07 A2994 RMK SLP153 DENSITY ALT 2900FT
Observed
Sep-19 @ 00:00 UTC
Wind
  • Variable at 2 KTS
Visibility
9 SM
Flight Rules
VFR
Cloud Levels
  • Scattered at 8,000' AGL
Temperature
17°C / 63°F
Dewpoint
C / 45°F
Humidity
52%
Altimeter
29.94" Hg
Pressure
1013.92 hPa
Previous

3 hours ago

CYXS 182300Z AUTO 11003KT 9SM CLR 15/08 A2994 RMK SLP153 DENSITY ALT 2800FT
Observed
Sep-18 @ 23:00 UTC
Wind
  • 110° at 3 KTS
Visibility
9 SM
Flight Rules
VFR
Cloud Levels
  • Clear skies
Temperature
15°C / 59°F
Dewpoint
C / 46°F
Humidity
63%
Altimeter
29.94" Hg
Pressure
1013.92 hPa